TimeEDT,TemperatureF,Dew PointF,Humidity,Sea Level PressureIn,VisibilityMPH,Wind Direction,Wind SpeedMPH,Gust SpeedMPH,PrecipitationIn,Events,Conditions,WindDirDegrees,DateUTC
12:54 AM,66.0,60.1,81,29.97,10.0,South,19.6,-,N/A,,Mostly Cloudy,170,2013-04-19 04:54:00
1:54 AM,66.0,60.1,81,29.95,10.0,South,15.0,-,N/A,,Overcast,180,2013-04-19 05:54:00
2:54 AM,66.0,60.1,81,29.93,10.0,South,16.1,20.7,N/A,,Overcast,180,2013-04-19 06:54:00
3:54 AM,66.0,61.0,84,29.90,10.0,SSW,13.8,21.9,N/A,,Overcast,200,2013-04-19 07:54:00
4:54 AM,66.0,61.0,84,29.88,10.0,South,13.8,-,N/A,,Mostly Cloudy,190,2013-04-19 08:54:00
5:54 AM,66.0,61.0,84,29.86,10.0,South,15.0,20.7,N/A,,Overcast,180,2013-04-19 09:54:00
6:11 AM,66.2,62.6,88,29.89,10.0,South,12.7,20.7,N/A,,Overcast,190,2013-04-19 10:11:00
6:54 AM,66.0,62.1,87,29.87,10.0,South,12.7,19.6,N/A,,Overcast,190,2013-04-19 10:54:00
7:21 AM,66.2,62.6,88,29.90,10.0,South,12.7,-,N/A,,Overcast,190,2013-04-19 11:21:00
7:54 AM,66.9,62.1,84,29.88,10.0,South,12.7,19.6,N/A,,Overcast,190,2013-04-19 11:54:00
8:54 AM,68.0,62.1,81,29.88,10.0,SSW,12.7,23.0,N/A,,Overcast,200,2013-04-19 12:54:00
9:54 AM,70.0,62.1,76,29.87,10.0,SSW,19.6,25.3,N/A,,Overcast,200,2013-04-19 13:54:00
10:54 AM,72.0,63.0,73,29.83,10.0,South,21.9,28.8,N/A,,Mostly Cloudy,190,2013-04-19 14:54:00
11:54 AM,73.0,64.0,73,29.82,10.0,South,20.7,25.3,N/A,,Mostly Cloudy,190,2013-04-19 15:54:00
12:27 PM,73.4,64.4,73,29.83,10.0,South,18.4,26.5,N/A,,Mostly Cloudy,190,2013-04-19 16:27:00
12:54 PM,73.9,64.0,71,29.78,10.0,South,19.6,27.6,N/A,,Mostly Cloudy,190,2013-04-19 16:54:00
1:54 PM,75.9,64.9,69,29.75,10.0,South,15.0,26.5,N/A,,Mostly Cloudy,180,2013-04-19 17:54:00
2:54 PM,75.0,64.9,71,29.72,10.0,South,19.6,31.1,0.02,,Mostly Cloudy,180,2013-04-19 18:54:00
3:54 PM,73.9,64.9,73,29.70,10.0,SSW,15.0,23.0,N/A,,Mostly Cloudy,200,2013-04-19 19:54:00
4:54 PM,70.0,64.0,81,29.72,8.0,WSW,17.3,27.6,0.01,Rain,Light Rain,250,2013-04-19 20:54:00
5:01 PM,69.8,64.4,83,29.74,8.0,WSW,15.0,23.0,0.00,Rain-Thunderstorm,Light Thunderstorms and Rain,240,2013-04-19 21:01:00
5:43 PM,68.0,62.6,83,29.78,0.8,SW,32.2,41.4,0.00,Rain-Thunderstorm,Heavy Thunderstorms and Rain,230,2013-04-19 21:43:00
5:54 PM,66.0,63.0,90,29.74,5.0,SW,20.7,35.7,0.13,Rain,Light Rain,230,2013-04-19 21:54:00
6:54 PM,66.0,64.0,93,29.72,10.0,SSW,11.5,-,0.05,,Overcast,200,2013-04-19 22:54:00
7:54 PM,66.0,63.0,90,29.73,10.0,SSW,11.5,19.6,0.01,Rain,Light Rain,210,2013-04-19 23:54:00
8:26 PM,66.2,64.4,94,29.76,5.0,SSW,15.0,21.9,0.02,Rain,Rain,200,2013-04-20 00:26:00
8:54 PM,64.9,63.0,93,29.73,6.0,South,16.1,-,0.08,Rain,Light Rain,180,2013-04-20 00:54:00
9:54 PM,64.0,60.1,87,29.76,10.0,SSW,16.1,29.9,0.00,,Overcast,210,2013-04-20 01:54:00
10:21 PM,62.6,57.2,82,29.81,10.0,SW,17.3,21.9,0.00,Rain,Light Rain,230,2013-04-20 02:21:00
10:38 PM,62.6,55.4,77,29.80,10.0,WSW,12.7,21.9,0.00,,Overcast,250,2013-04-20 02:38:00
10:54 PM,61.0,54.0,78,29.80,10.0,WSW,11.5,-,0.00,,Mostly Cloudy,250,2013-04-20 02:54:00
11:27 PM,60.8,51.8,72,29.83,10.0,WSW,11.5,-,N/A,,Overcast,250,2013-04-20 03:27:00
11:54 PM,57.0,45.0,64,29.84,10.0,West,16.1,24.2,N/A,,Overcast,280,2013-04-20 03:54:00